Adelaide, Australia
Current Conditions -  °F | °C
As of 6:00 PM on Saturday 29 Nov 2014 (Local Time) from YPAD Reporting Station
Clear Clear  
Wind Chill: 86°   Ceiling: Unl
Heat Index: 86°   Visibility: 6mi
Dew Point: 30°   Wind: 10mph
Humidity: 13%   Direction: 200°SSW
Pressure: 29.71"   Gusts: NA
Location:  34.93°S, 138.6°E
Report Text: YPAD 290800Z 20009KT CAVOK 30/M01 Q1006 FM0900 16008KT CAVOK
Loading
Personal Weather Stations






























Interactive Weather Map New forecast layout! Learn more

10-Day Weather Forecast

Advertisements
Track Severe Weather on mobile